Time;durP1;ratioP1;P1;durP2;ratioP2;P2;SDS_P1;SDS_P2;PMS_P1;PMS_P2;Temp;Humidity;BMP_temperature;BMP_pressure;BME280_temperature;BME280_humidity;BME280_pressure;Samples;Min_cycle;Max_cycle;Signal;HPM_P1;HPM_P2
2023/07/22 00:02:16;;;;;;;6.53;3.20;;;;;;;26.51;51.50;99764.19;5091529;28;20055;-72
2023/07/22 00:04:46;;;;;;;4.13;2.53;;;;;;;26.50;51.32;99762.50;5091537;28;20070;-72
2023/07/22 00:07:15;;;;;;;6.00;2.90;;;;;;;26.51;51.36;99777.03;5091309;28;20130;-71
2023/07/22 00:09:44;;;;;;;4.68;2.80;;;;;;;26.49;51.42;99770.91;5091187;28;20409;-72
2023/07/22 00:12:12;;;;;;;3.78;2.50;;;;;;;26.49;51.55;99757.25;5091506;28;20093;-71
2023/07/22 00:14:42;;;;;;;6.07;2.83;;;;;;;26.48;51.22;99755.56;5091634;28;20040;-72
2023/07/22 00:17:11;;;;;;;4.55;2.75;;;;;;;26.46;51.05;99763.97;5094596;28;20138;-72
2023/07/22 00:19:39;;;;;;;7.40;2.80;;;;;;;26.46;51.08;99769.44;5094918;28;20074;-72
2023/07/22 00:22:09;;;;;;;5.25;2.75;;;;;;;26.44;51.39;99773.41;5095177;28;20438;-72
2023/07/22 00:24:37;;;;;;;5.35;3.20;;;;;;;26.43;51.16;99769.00;5095393;28;20051;-71
2023/07/22 00:27:08;;;;;;;5.25;2.80;;;;;;;26.42;51.19;99768.16;5095116;28;20093;-73
2023/07/22 00:29:37;;;;;;;4.95;3.10;;;;;;;26.40;51.30;99761.22;5095340;28;20044;-72
2023/07/22 00:32:10;;;;;;;5.10;2.85;;;;;;;26.39;51.56;99759.53;5094957;28;20048;-72
2023/07/22 00:34:39;;;;;;;5.25;2.78;;;;;;;26.36;51.55;99757.19;5094936;28;20513;-73
2023/07/22 00:37:07;;;;;;;4.90;2.90;;;;;;;26.38;51.30;99760.59;5095216;28;20090;-72
2023/07/22 00:39:37;;;;;;;5.65;2.80;;;;;;;26.37;51.39;99761.63;5095152;28;20097;-72
2023/07/22 00:42:08;;;;;;;6.05;3.00;;;;;;;26.36;51.71;99752.56;5095236;28;20113;-73
2023/07/22 00:44:37;;;;;;;4.72;3.00;;;;;;;26.34;51.60;99749.19;5095301;28;20044;-72
2023/07/22 00:47:05;;;;;;;4.70;3.08;;;;;;;26.34;51.55;99767.47;5095066;28;20051;-72
2023/07/22 00:49:35;;;;;;;5.07;3.00;;;;;;;26.32;51.50;99761.38;5094955;28;20094;-73
2023/07/22 00:52:04;;;;;;;5.05;2.92;;;;;;;26.30;51.65;99760.75;5094831;28;20047;-72
2023/07/22 00:54:33;;;;;;;6.47;3.08;;;;;;;26.30;51.20;99768.94;5094565;28;20497;-72
2023/07/22 00:57:03;;;;;;;5.70;2.63;;;;;;;26.28;51.73;99771.03;5094655;28;20466;-72
2023/07/22 00:59:31;;;;;;;4.72;2.72;;;;;;;26.29;51.43;99780.94;5094336;28;20048;-72
2023/07/22 01:01:59;;;;;;;5.63;3.10;;;;;;;26.26;51.50;99784.94;5094387;28;20513;-71
2023/07/22 01:04:28;;;;;;;6.22;2.95;;;;;;;26.25;51.81;99784.09;5094534;28;20043;-70
2023/07/22 01:06:56;;;;;;;5.82;2.97;;;;;;;26.24;51.68;99792.47;5094494;28;20495;-71
2023/07/22 01:09:24;;;;;;;5.30;3.03;;;;;;;26.23;51.84;99801.72;5094270;28;20059;-71
2023/07/22 01:11:53;;;;;;;4.65;2.80;;;;;;;26.23;51.79;99809.91;5094276;28;20054;-71
2023/07/22 01:14:22;;;;;;;4.55;2.90;;;;;;;26.20;52.07;99813.91;5094208;28;20063;-71
2023/07/22 01:16:50;;;;;;;4.38;2.80;;;;;;;26.20;51.70;99813.91;5094467;28;20086;-71
2023/07/22 01:19:20;;;;;;;5.90;2.80;;;;;;;26.18;51.92;99799.59;5094151;28;20101;-71
2023/07/22 01:21:49;;;;;;;7.05;3.00;;;;;;;26.18;51.82;99805.06;5093807;28;20575;-70
2023/07/22 01:24:18;;;;;;;4.32;2.72;;;;;;;26.17;51.97;99806.13;5094111;28;20053;-70
2023/07/22 01:26:47;;;;;;;5.15;2.90;;;;;;;26.16;52.25;99812.66;5093696;28;20526;-71
2023/07/22 01:29:15;;;;;;;4.88;2.97;;;;;;;26.15;51.95;99808.22;5094096;28;20091;-72
2023/07/22 01:31:48;;;;;;;5.32;3.13;;;;;;;26.16;52.11;99823.56;5094227;28;20626;-72
2023/07/22 01:34:16;;;;;;;5.07;2.80;;;;;;;26.15;52.06;99827.38;5094077;28;20050;-71
2023/07/22 01:36:47;;;;;;;5.38;2.97;;;;;;;26.13;52.07;99826.69;5093796;28;20276;-71
2023/07/22 01:39:18;;;;;;;5.63;2.65;;;;;;;26.13;51.81;99828.59;5093867;28;20393;-71
2023/07/22 01:41:48;;;;;;;5.43;2.80;;;;;;;26.11;51.87;99828.78;5093618;28;20416;-72
2023/07/22 01:44:19;;;;;;;4.78;2.90;;;;;;;26.08;52.15;99831.94;5093773;28;20101;-72
2023/07/22 01:46:47;;;;;;;8.05;3.15;;;;;;;26.10;52.14;99835.31;5093399;28;20054;-71
2023/07/22 01:49:16;;;;;;;4.90;2.88;;;;;;;26.10;51.99;99839.94;5093763;28;20048;-71
2023/07/22 01:51:45;;;;;;;4.25;2.60;;;;;;;26.06;52.26;99839.50;5093674;28;20071;-72
2023/07/22 01:54:13;;;;;;;5.22;2.90;;;;;;;26.07;52.11;99841.19;5093704;28;20139;-71
2023/07/22 01:56:41;;;;;;;4.40;2.97;;;;;;;26.05;52.18;99843.25;5093637;28;20138;-71
2023/07/22 01:59:11;;;;;;;4.55;2.70;;;;;;;26.06;52.12;99857.78;5092198;28;20098;-71
2023/07/22 02:01:40;;;;;;;4.55;3.03;;;;;;;26.03;52.21;99853.56;5093275;28;20413;-72
2023/07/22 02:04:08;;;;;;;6.68;2.72;;;;;;;26.04;52.02;99852.50;5093481;28;20059;-71
2023/07/22 02:06:36;;;;;;;5.30;2.90;;;;;;;26.03;52.10;99860.91;5093411;28;20048;-72
2023/07/22 02:09:08;;;;;;;5.30;3.20;;;;;;;26.01;52.29;99846.63;5093296;28;20409;-71
2023/07/22 02:11:37;;;;;;;4.30;2.65;;;;;;;26.00;52.24;99845.78;5093461;28;20070;-71
2023/07/22 02:14:06;;;;;;;4.82;2.80;;;;;;;25.99;51.81;99857.75;5093282;28;20130;-72
2023/07/22 02:16:40;;;;;;;5.75;2.80;;;;;;;25.98;52.34;99863.41;5093004;28;20447;-73
2023/07/22 02:19:08;;;;;;;4.40;2.80;;;;;;;25.96;52.17;99866.31;5093288;28;20044;-72
2023/07/22 02:21:36;;;;;;;5.38;2.70;;;;;;;25.96;52.20;99867.19;5093089;28;20052;-71
2023/07/22 02:24:06;;;;;;;6.80;3.05;;;;;;;25.94;52.18;99874.72;5092939;28;20481;-72
2023/07/22 02:26:34;;;;;;;4.95;3.08;;;;;;;25.93;52.26;99883.97;5093156;28;20048;-72
2023/07/22 02:29:05;;;;;;;4.38;3.03;;;;;;;25.92;52.01;99881.44;5093046;28;20044;-72
2023/07/22 02:31:33;;;;;;;5.28;2.97;;;;;;;25.91;52.16;99882.50;5092670;28;20050;-72
2023/07/22 02:34:03;;;;;;;4.13;2.97;;;;;;;25.90;52.00;99884.38;5092981;28;20070;-72
2023/07/22 02:36:31;;;;;;;5.13;3.00;;;;;;;25.91;52.44;99890.69;5092924;28;20052;-72
2023/07/22 02:38:59;;;;;;;4.85;3.00;;;;;;;25.89;52.18;99882.72;5092040;28;20051;-71
2023/07/22 02:41:27;;;;;;;5.65;3.00;;;;;;;25.90;52.45;99883.53;5092870;28;20110;-72
2023/07/22 02:43:55;;;;;;;4.57;2.88;;;;;;;25.88;52.46;99889.22;5092620;28;20047;-72
2023/07/22 02:46:25;;;;;;;5.60;2.80;;;;;;;25.87;52.33;99900.34;5092525;28;20044;-72
2023/07/22 02:48:54;;;;;;;5.00;2.85;;;;;;;25.87;52.24;99897.63;5092723;28;20051;-72
2023/07/22 02:51:24;;;;;;;5.53;2.80;;;;;;;25.85;52.37;99902.41;5092482;28;20048;-72
2023/07/22 02:53:52;;;;;;;5.82;3.05;;;;;;;25.84;52.29;99898.84;5092516;28;20118;-72
2023/07/22 02:56:20;;;;;;;5.20;3.10;;;;;;;25.83;52.15;99897.16;5092490;28;20048;-72
2023/07/22 02:58:48;;;;;;;8.85;2.97;;;;;;;25.82;52.56;99894.63;5092633;28;20118;-71
2023/07/22 03:01:18;;;;;;;4.60;2.80;;;;;;;25.80;52.48;99904.91;5092123;28;20056;-72
2023/07/22 03:03:47;;;;;;;8.38;3.20;;;;;;;25.80;52.30;99904.91;5092112;28;20076;-71
2023/07/22 03:06:15;;;;;;;5.97;2.80;;;;;;;25.79;52.46;99903.22;5092286;28;20142;-73
2023/07/22 03:08:45;;;;;;;6.03;3.10;;;;;;;25.77;52.53;99914.34;5091976;28;20061;-72
2023/07/22 03:11:13;;;;;;;6.07;3.03;;;;;;;25.78;52.33;99918.78;5092186;28;20081;-72
2023/07/22 03:13:41;;;;;;;8.73;3.20;;;;;;;25.77;52.51;99916.22;5092169;28;20404;-72
2023/07/22 03:16:10;;;;;;;6.40;3.13;;;;;;;25.77;52.61;99922.56;5092064;28;20043;-72
2023/07/22 03:18:39;;;;;;;7.88;3.10;;;;;;;25.76;52.29;99930.91;5092236;28;20044;-71
2023/07/22 03:21:08;;;;;;;5.13;2.80;;;;;;;25.74;52.49;99922.09;5091990;28;20044;-73
2023/07/22 03:23:37;;;;;;;4.97;3.03;;;;;;;25.74;52.46;99924.81;5091975;28;20117;-72
2023/07/22 03:26:06;;;;;;;6.03;3.05;;;;;;;25.74;52.64;99911.16;5091931;28;20105;-72
2023/07/22 03:28:35;;;;;;;4.50;2.80;;;;;;;25.73;52.26;99912.22;5092070;28;20475;-72
2023/07/22 03:31:04;;;;;;;6.47;3.00;;;;;;;25.71;52.59;99908.84;5091965;28;20101;-72
2023/07/22 03:33:32;;;;;;;4.75;2.92;;;;;;;25.71;52.36;99917.03;5091861;28;20052;-72
2023/07/22 03:36:01;;;;;;;5.88;3.08;;;;;;;25.69;52.70;99914.47;5091508;28;20043;-71
2023/07/22 03:38:29;;;;;;;5.30;3.13;;;;;;;25.68;52.54;99905.44;5091506;28;20080;-72
2023/07/22 03:40:57;;;;;;;5.65;3.30;;;;;;;25.66;52.63;99910.22;5091556;28;20437;-70
2023/07/22 03:43:27;;;;;;;5.63;2.70;;;;;;;25.65;52.74;99908.53;5091920;28;20055;-70
2023/07/22 03:45:55;;;;;;;5.20;3.13;;;;;;;25.65;52.87;99911.28;5091832;28;20051;-69
2023/07/22 03:48:23;;;;;;;5.95;3.20;;;;;;;25.65;53.03;99916.72;5091816;28;20462;-70
2023/07/22 03:50:51;;;;;;;5.78;3.13;;;;;;;25.63;53.11;99920.72;5091337;28;20056;-71
2023/07/22 03:53:32;;;;;;;5.30;3.13;;;;;;;25.62;52.75;99928.06;5091743;28;20043;-71
2023/07/22 03:56:00;;;;;;;5.78;3.22;;;;;;;25.61;53.03;99923.66;5091478;28;20060;-71
2023/07/22 03:58:29;;;;;;;6.93;3.20;;;;;;;25.60;53.46;99921.97;5091361;28;20040;-71
2023/07/22 04:00:58;;;;;;;6.03;3.47;;;;;;;25.60;53.42;99927.41;5091214;28;20048;-71
2023/07/22 04:03:26;;;;;;;5.70;3.28;;;;;;;25.56;53.30;99931.56;5091675;28;20040;-71
2023/07/22 04:05:55;;;;;;;5.13;3.10;;;;;;;25.56;53.41;99926.09;5091601;28;20044;-71
2023/07/22 04:08:23;;;;;;;7.57;3.30;;;;;;;25.58;53.42;99939.59;5091409;28;20044;-73
2023/07/22 04:10:53;;;;;;;5.05;3.17;;;;;;;25.57;53.52;99933.25;5091293;28;20056;-70
2023/07/22 04:13:22;;;;;;;6.93;3.47;;;;;;;25.57;53.67;99926.94;5091539;28;20044;-70
2023/07/22 04:15:51;;;;;;;5.22;3.28;;;;;;;25.56;53.57;99928.84;5091320;28;20048;-71
2023/07/22 04:18:21;;;;;;;6.15;3.28;;;;;;;25.56;53.42;99928.84;5091049;28;20088;-72
2023/07/22 04:20:56;;;;;;;5.07;3.00;;;;;;;25.54;53.83;99920.00;5091392;28;20048;-72
2023/07/22 04:23:24;;;;;;;5.13;3.20;;;;;;;25.56;53.74;99920.66;5091536;28;20128;-72
2023/07/22 04:25:52;;;;;;;5.25;3.30;;;;;;;25.56;53.89;99914.34;5091322;28;20044;-70
2023/07/22 04:28:21;;;;;;;6.38;3.40;;;;;;;25.54;53.84;99914.53;5091381;28;20048;-70
2023/07/22 04:30:58;;;;;;;4.55;3.17;;;;;;;25.54;53.82;99916.44;5090947;28;20047;-69
2023/07/22 04:33:27;;;;;;;6.05;3.58;;;;;;;25.53;53.71;99915.59;5091293;28;20074;-71
2023/07/22 04:35:58;;;;;;;5.10;2.88;;;;;;;25.54;54.05;99927.34;5091273;28;20044;-70
2023/07/22 04:38:27;;;;;;;4.70;3.30;;;;;;;25.55;54.08;99929.03;5091022;28;20052;-72
2023/07/22 04:40:55;;;;;;;4.35;2.95;;;;;;;25.53;53.83;99931.97;5090830;28;20041;-72
2023/07/22 04:43:24;;;;;;;7.03;3.25;;;;;;;25.53;54.00;99926.50;5091367;28;20040;-71
2023/07/22 04:45:52;;;;;;;5.55;3.08;;;;;;;25.53;53.96;99925.66;5091566;28;20077;-71
2023/07/22 04:48:23;;;;;;;6.25;3.20;;;;;;;25.53;54.19;99931.97;5091010;28;20044;-71
2023/07/22 04:50:51;;;;;;;5.45;3.17;;;;;;;25.53;54.27;99937.44;5090890;28;20093;-70
2023/07/22 04:53:20;;;;;;;6.07;3.28;;;;;;;25.53;53.77;99934.72;5091060;28;20052;-70
2023/07/22 04:55:48;;;;;;;5.30;2.92;;;;;;;25.53;53.69;99939.31;5090776;28;20194;-70
2023/07/22 04:58:16;;;;;;;5.53;2.97;;;;;;;25.54;53.81;99949.19;5090814;28;20135;-70
2023/07/22 05:00:45;;;;;;;5.82;2.90;;;;;;;25.54;53.59;99950.03;5089858;28;20135;-71
2023/07/22 05:03:13;;;;;;;5.10;3.15;;;;;;;25.54;53.97;99958.25;5093900;28;20455;-71
2023/07/22 05:05:43;;;;;;;5.43;3.20;;;;;;;25.55;53.87;99962.66;5094342;28;20080;-71
2023/07/22 05:08:12;;;;;;;4.80;2.83;;;;;;;25.54;53.77;99960.13;5094251;28;20050;-71
2023/07/22 05:10:40;;;;;;;5.45;3.20;;;;;;;25.55;53.58;99961.81;5094171;28;20056;-71
2023/07/22 05:13:08;;;;;;;5.13;2.75;;;;;;;25.52;53.82;99960.31;5094479;28;20079;-70
2023/07/22 05:15:37;;;;;;;6.18;3.00;;;;;;;25.51;53.87;99953.19;5092949;28;20529;-72
2023/07/22 05:18:05;;;;;;;5.78;3.20;;;;;;;25.51;53.84;99953.19;5094450;28;20050;-72
2023/07/22 05:20:33;;;;;;;5.22;3.03;;;;;;;25.50;54.00;99953.38;5094308;28;20071;-71
2023/07/22 05:23:03;;;;;;;5.07;2.75;;;;;;;25.49;53.87;99959.88;5094216;28;20558;-71
2023/07/22 05:25:31;;;;;;;4.65;3.03;;;;;;;25.49;53.98;99963.47;5094014;28;20099;-71
2023/07/22 05:27:59;;;;;;;6.10;2.95;;;;;;;25.48;53.99;99972.69;5094154;28;20044;-71
2023/07/22 05:30:27;;;;;;;6.60;2.90;;;;;;;25.48;54.33;99974.53;5094121;28;20051;-71
2023/07/22 05:33:03;;;;;;;5.97;3.35;;;;;;;25.47;54.14;99983.78;5094000;28;20051;-72
2023/07/22 05:35:31;;;;;;;5.65;2.90;;;;;;;25.46;54.09;99974.75;5094071;28;20052;-72
2023/07/22 05:38:00;;;;;;;4.72;2.78;;;;;;;25.45;53.60;99989.44;5093920;28;20466;-72
2023/07/22 05:40:30;;;;;;;4.45;2.80;;;;;;;25.45;53.92;99983.97;5093695;28;20511;-71
2023/07/22 05:42:58;;;;;;;4.85;3.25;;;;;;;25.41;54.11;99993.63;5093796;28;20058;-71
2023/07/22 05:45:27;;;;;;;5.53;3.25;;;;;;;25.40;54.42;99990.03;5093533;28;20062;-72
2023/07/22 05:47:55;;;;;;;5.40;2.92;;;;;;;25.40;53.97;99987.31;5093304;28;20507;-72
2023/07/22 05:50:23;;;;;;;5.00;3.28;;;;;;;25.39;54.03;99992.97;5093525;28;20047;-71
2023/07/22 05:52:51;;;;;;;5.70;3.05;;;;;;;25.41;54.06;100004.53;5093732;28;20458;-71
2023/07/22 05:55:19;;;;;;;6.53;3.25;;;;;;;25.42;54.06;100003.50;5093785;28;20078;-71
2023/07/22 05:57:49;;;;;;;5.45;3.40;;;;;;;25.41;54.14;99999.06;5093595;28;20136;-71
2023/07/22 06:00:18;;;;;;;5.43;3.10;;;;;;;25.39;54.40;99995.72;5093213;28;20200;-71
2023/07/22 06:02:46;;;;;;;5.00;3.08;;;;;;;25.38;54.51;99994.84;5093546;28;20048;-72
2023/07/22 06:05:15;;;;;;;5.90;3.42;;;;;;;25.37;54.44;99992.31;5093397;28;20066;-70
2023/07/22 06:07:43;;;;;;;5.13;3.50;;;;;;;25.35;54.21;100002.56;5093180;28;20542;-70
2023/07/22 06:10:12;;;;;;;4.30;3.30;;;;;;;25.35;54.32;100011.59;5092975;28;20084;-71
2023/07/22 06:12:41;;;;;;;5.05;3.25;;;;;;;25.31;54.21;100004.00;5092532;28;20093;-71
2023/07/22 06:15:11;;;;;;;5.57;3.20;;;;;;;25.30;54.52;100008.63;5092267;28;20445;-72
2023/07/22 06:17:39;;;;;;;7.43;3.60;;;;;;;25.26;54.52;100003.72;5091565;28;20134;-71
2023/07/22 06:20:09;;;;;;;5.28;3.58;;;;;;;25.27;54.34;100009.00;5093355;28;20101;-72
2023/07/22 06:22:37;;;;;;;6.68;3.67;;;;;;;25.28;54.79;100020.75;5092459;28;20051;-72
2023/07/22 06:25:06;;;;;;;5.22;3.45;;;;;;;25.29;54.49;100008.81;5093031;28;20054;-72
2023/07/22 06:27:38;;;;;;;5.38;3.28;;;;;;;25.31;54.33;100014.94;5092938;28;20047;-73
2023/07/22 06:30:08;;;;;;;4.88;3.33;;;;;;;25.28;54.42;100018.03;5092982;28;20097;-72
2023/07/22 06:32:39;;;;;;;6.68;3.45;;;;;;;25.27;54.44;100009.00;5092988;28;20139;-72
2023/07/22 06:35:08;;;;;;;4.90;3.30;;;;;;;25.29;54.29;100008.81;5092599;28;20443;-72
2023/07/22 06:37:37;;;;;;;6.57;3.55;;;;;;;25.31;54.22;100012.19;5092493;28;20047;-71
2023/07/22 06:40:06;;;;;;;5.10;3.17;;;;;;;25.31;54.32;100004.84;5092628;28;20095;-71
2023/07/22 06:42:34;;;;;;;5.85;3.60;;;;;;;25.34;54.25;100009.06;5092533;28;20048;-71
2023/07/22 06:45:03;;;;;;;4.53;3.40;;;;;;;25.31;54.31;100006.75;5092745;28;20047;-71
2023/07/22 06:47:31;;;;;;;6.97;3.30;;;;;;;25.32;54.45;100002.97;5092322;28;20097;-72
2023/07/22 06:50:01;;;;;;;5.95;3.38;;;;;;;25.33;54.19;100001.94;5092548;28;20051;-70
2023/07/22 06:52:29;;;;;;;5.75;3.38;;;;;;;25.32;54.28;100002.97;5092298;28;20590;-70
2023/07/22 06:54:57;;;;;;;7.03;3.35;;;;;;;25.35;54.39;100005.31;5092459;28;20043;-71
2023/07/22 06:57:26;;;;;;;5.95;3.28;;;;;;;25.36;54.23;100004.25;5092318;28;20079;-71
2023/07/22 06:59:54;;;;;;;7.10;3.22;;;;;;;25.37;54.22;100014.13;5092246;28;20051;-71
2023/07/22 07:02:23;;;;;;;5.22;3.50;;;;;;;25.36;54.02;100007.84;5092026;28;20076;-70
2023/07/22 07:04:51;;;;;;;5.90;3.25;;;;;;;25.37;54.33;100014.13;5092076;28;20055;-71
2023/07/22 07:07:21;;;;;;;5.82;3.42;;;;;;;25.36;54.18;100007.00;5091533;28;20050;-72
2023/07/22 07:09:50;;;;;;;6.05;3.35;;;;;;;25.33;54.65;100012.84;5091958;28;20048;-72
2023/07/22 07:12:18;;;;;;;5.10;3.38;;;;;;;25.33;54.61;100012.84;5092276;28;20048;-71
2023/07/22 07:14:46;;;;;;;5.45;3.38;;;;;;;25.28;54.78;100018.03;5092014;28;20055;-71
2023/07/22 07:17:15;;;;;;;5.70;3.70;;;;;;;25.24;55.17;100028.50;5091845;28;20154;-72
2023/07/22 07:19:43;;;;;;;8.48;3.70;;;;;;;25.17;55.25;100029.44;5091664;28;20503;-72
2023/07/22 07:22:11;;;;;;;7.38;3.60;;;;;;;25.19;55.23;100027.38;5092074;28;20043;-73
2023/07/22 07:24:41;;;;;;;5.65;3.33;;;;;;;25.20;55.18;100029.94;5091510;28;20433;-75
2023/07/22 07:27:10;;;;;;;5.78;3.30;;;;;;;25.22;55.14;100029.72;5091823;28;20104;-73
2023/07/22 07:29:38;;;;;;;5.18;3.53;;;;;;;25.24;55.00;100033.97;5091737;28;20048;-74
2023/07/22 07:32:23;;;;;;;5.63;3.47;;;;;;;25.26;55.21;100033.75;5092235;28;20044;-73
2023/07/22 07:34:51;;;;;;;4.88;3.47;;;;;;;25.27;55.04;100041.75;5091815;28;20197;-72
2023/07/22 07:37:19;;;;;;;6.25;3.83;;;;;;;25.28;55.10;100037.13;5091707;28;20115;-71
2023/07/22 07:39:49;;;;;;;6.53;3.40;;;;;;;25.29;55.18;100038.84;5091681;28;20036;-70
2023/07/22 07:42:17;;;;;;;5.45;3.60;;;;;;;25.31;55.22;100039.50;5091466;28;20074;-70
2023/07/22 07:44:46;;;;;;;5.55;3.28;;;;;;;25.30;55.31;100038.66;5091354;28;20052;-71
2023/07/22 07:47:14;;;;;;;5.57;3.35;;;;;;;25.33;55.49;100051.06;5091497;28;20044;-70
2023/07/22 07:49:42;;;;;;;6.30;3.58;;;;;;;25.34;55.42;100048.13;5091293;28;20060;-70
2023/07/22 07:52:10;;;;;;;6.68;3.28;;;;;;;25.33;55.53;100042.88;5091344;28;20048;-71
2023/07/22 07:54:42;;;;;;;5.80;3.45;;;;;;;25.35;55.22;100054.44;5091568;28;20190;-70
2023/07/22 07:57:11;;;;;;;5.43;3.38;;;;;;;25.31;55.46;100054.00;5091437;28;20101;-71
2023/07/22 07:59:39;;;;;;;5.25;3.42;;;;;;;25.32;54.94;100054.84;5091255;28;20072;-70
2023/07/22 08:02:10;;;;;;;6.43;3.60;;;;;;;25.32;55.01;100061.13;5091108;28;20565;-70
2023/07/22 08:04:38;;;;;;;4.95;3.40;;;;;;;25.32;55.23;100074.78;5091347;28;20060;-71
2023/07/22 08:07:07;;;;;;;6.13;3.42;;;;;;;25.31;55.14;100085.91;5091305;28;20128;-68
2023/07/22 08:09:36;;;;;;;6.70;3.78;;;;;;;25.15;54.93;100086.13;5091193;28;20056;-71
2023/07/22 08:12:05;;;;;;;6.57;3.53;;;;;;;25.17;54.63;100082.16;5091427;28;20055;-70
2023/07/22 08:14:35;;;;;;;5.15;3.15;;;;;;;25.23;54.96;100094.19;5107099;28;20056;-71
2023/07/22 08:17:04;;;;;;;4.95;3.40;;;;;;;25.26;54.65;100091.06;5091339;28;20054;-71
2023/07/22 08:19:32;;;;;;;4.57;3.17;;;;;;;25.31;54.90;100088.63;5091439;28;20043;-74
2023/07/22 08:22:00;;;;;;;4.55;2.97;;;;;;;25.36;54.46;100094.34;5091386;28;20055;-71
2023/07/22 08:24:29;;;;;;;4.57;3.08;;;;;;;25.38;54.47;100093.16;5090874;28;20485;-71
2023/07/22 08:26:57;;;;;;;4.18;2.80;;;;;;;25.41;54.08;100100.09;5090784;28;20048;-71
2023/07/22 08:29:26;;;;;;;4.93;2.80;;;;;;;25.42;54.03;100093.59;5090695;28;20045;-71
2023/07/22 08:31:55;;;;;;;5.40;3.20;;;;;;;25.45;54.09;100117.78;5091050;28;20481;-70
2023/07/22 08:34:23;;;;;;;5.05;3.10;;;;;;;25.47;53.89;100121.16;5090783;28;20359;-72
2023/07/22 08:36:52;;;;;;;4.47;2.95;;;;;;;25.48;54.07;100113.81;5091722;28;20048;-72
2023/07/22 08:39:20;;;;;;;5.25;3.10;;;;;;;25.50;53.93;100115.31;5094671;28;20048;-72
2023/07/22 08:41:50;;;;;;;4.60;2.80;;;;;;;25.51;53.75;100127.09;5094810;28;20070;-72
2023/07/22 08:44:20;;;;;;;6.20;2.80;;;;;;;25.51;53.70;100125.22;5094790;28;20051;-73
2023/07/22 08:47:00;;;;;;;3.67;2.45;;;;;;;25.53;53.70;100125.84;5094520;28;20512;-72
2023/07/22 08:49:29;;;;;;;6.30;2.90;;;;;;;25.56;53.65;100125.47;5094807;28;20052;-72
2023/07/22 08:51:58;;;;;;;4.53;2.92;;;;;;;25.57;53.59;100127.16;5094629;28;20078;-72
2023/07/22 08:54:27;;;;;;;5.05;2.88;;;;;;;25.58;53.38;100128.03;5094825;28;20047;-73
2023/07/22 08:56:55;;;;;;;4.70;3.08;;;;;;;25.60;53.23;100142.31;5094570;28;20048;-73
2023/07/22 08:59:25;;;;;;;4.13;2.95;;;;;;;25.61;53.49;100146.75;5094399;28;20052;-71
2023/07/22 09:01:53;;;;;;;5.45;2.67;;;;;;;25.62;53.21;100141.09;5094302;28;20509;-73
2023/07/22 09:04:23;;;;;;;4.43;2.85;;;;;;;25.63;53.03;100148.25;5094045;28;20058;-72
2023/07/22 09:06:52;;;;;;;4.20;2.75;;;;;;;25.65;53.31;100153.50;5109639;28;20044;-72
2023/07/22 09:09:22;;;;;;;5.13;3.00;;;;;;;25.65;52.71;100148.88;5094124;28;20048;-72
2023/07/22 09:11:51;;;;;;;3.60;2.45;;;;;;;25.67;52.66;100152.31;5094059;28;20489;-72
2023/07/22 09:14:20;;;;;;;4.03;2.65;;;;;;;25.68;52.70;100148.53;5094101;28;20051;-73
2023/07/22 09:17:06;;;;;;;6.00;2.70;;;;;;;25.72;52.54;100149.00;5094298;28;20524;-73
2023/07/22 09:19:35;;;;;;;4.10;2.60;;;;;;;25.73;52.89;100147.13;5094318;28;20079;-69
2023/07/22 09:22:04;;;;;;;4.00;2.65;;;;;;;25.74;52.86;100148.81;5076292;28;20044;-73
2023/07/22 09:24:32;;;;;;;4.45;2.90;;;;;;;25.76;52.48;100154.91;5093985;28;20473;-72
2023/07/22 09:27:00;;;;;;;3.45;2.28;;;;;;;25.78;52.59;100155.59;5093963;28;20040;-73
2023/07/22 09:29:36;;;;;;;4.03;2.50;;;;;;;25.78;52.62;100161.91;5093745;28;20435;-72
2023/07/22 09:32:05;;;;;;;5.10;2.65;;;;;;;25.79;52.17;100154.56;5094293;28;20072;-73
2023/07/22 09:34:35;;;;;;;4.65;2.75;;;;;;;25.82;52.43;100159.63;5093989;28;20048;-73
2023/07/22 09:37:05;;;;;;;3.35;2.33;;;;;;;25.82;52.12;100163.19;5093791;28;20044;-73
2023/07/22 09:39:33;;;;;;;3.63;2.42;;;;;;;25.84;52.17;100154.81;5093834;28;20043;-73
2023/07/22 09:42:03;;;;;;;3.67;2.40;;;;;;;25.85;52.28;100159.22;5093529;28;20132;-73
2023/07/22 09:44:33;;;;;;;3.55;2.50;;;;;;;25.87;52.06;100159.91;5093357;28;20043;-73
2023/07/22 09:47:07;;;;;;;3.28;2.33;;;;;;;25.87;52.05;100146.25;5092992;28;20059;-73
2023/07/22 09:49:42;;;;;;;3.58;2.30;;;;;;;25.90;51.79;100156.78;5093322;28;20047;-71
2023/07/22 09:52:13;;;;;;;3.13;2.35;;;;;;;25.92;51.76;100141.03;5093428;28;20131;-73
2023/07/22 09:54:49;;;;;;;4.18;2.30;;;;;;;25.93;51.91;100139.97;5093582;28;20051;-75
2023/07/22 09:57:17;;;;;;;4.72;2.60;;;;;;;25.94;51.28;100130.75;5093183;28;20131;-75
2023/07/22 09:59:48;;;;;;;4.03;2.40;;;;;;;25.95;51.41;100124.22;5093467;28;20464;-73
2023/07/22 10:02:20;;;;;;;3.60;2.58;;;;;;;25.97;51.53;100124.91;5093190;28;20461;-73
2023/07/22 10:04:53;;;;;;;5.57;2.30;;;;;;;26.00;51.42;100134.59;5093084;28;20052;-73
2023/07/22 10:07:22;;;;;;;3.40;2.20;;;;;;;26.01;51.71;100125.34;5093415;28;20050;-74
2023/07/22 10:09:55;;;;;;;3.55;2.20;;;;;;;26.03;51.46;100134.19;5093104;28;20113;-75
2023/07/22 10:12:24;;;;;;;3.92;2.40;;;;;;;26.04;51.29;100135.88;5093189;28;20048;-74
2023/07/22 10:14:56;;;;;;;3.22;2.13;;;;;;;26.05;51.11;100138.41;5093052;28;20132;-77
2023/07/22 10:17:24;;;;;;;4.18;2.30;;;;;;;26.09;51.18;100147.09;5092713;28;20098;-76
2023/07/22 10:19:55;;;;;;;3.95;2.35;;;;;;;26.09;50.88;100139.72;5092899;28;20048;-76
2023/07/22 10:22:23;;;;;;;4.30;2.20;;;;;;;26.11;51.46;100153.19;5092748;28;20044;-77
2023/07/22 10:24:55;;;;;;;3.25;2.17;;;;;;;26.14;51.18;100158.25;5092623;28;20109;-77
2023/07/22 10:27:24;;;;;;;3.80;2.38;;;;;;;26.15;50.73;100154.47;5092792;28;20045;-72
2023/07/22 10:29:55;;;;;;;3.47;2.20;;;;;;;26.18;50.85;100171.38;5092667;28;20044;-74
2023/07/22 10:32:33;;;;;;;2.70;1.92;;;;;;;26.19;50.52;100164.00;5092685;28;20481;-73
2023/07/22 10:35:03;;;;;;;3.20;2.22;;;;;;;26.21;50.61;100157.28;5092745;28;20078;-73
2023/07/22 10:37:33;;;;;;;4.50;2.22;;;;;;;26.24;50.81;100170.56;5092951;28;20044;-73
2023/07/22 10:40:02;;;;;;;4.75;2.35;;;;;;;26.25;50.24;100161.34;5092517;28;20047;-74
2023/07/22 10:42:33;;;;;;;4.22;2.17;;;;;;;26.28;50.82;100142.84;5092724;28;20051;-74
2023/07/22 10:45:02;;;;;;;3.13;2.05;;;;;;;26.30;50.29;100157.16;5092518;28;20102;-75
2023/07/22 10:47:40;;;;;;;3.90;2.45;;;;;;;26.31;50.56;100154.22;5091942;28;20043;-67
2023/07/22 10:50:11;;;;;;;3.65;2.20;;;;;;;26.34;50.59;100144.78;5091368;28;20111;-70
2023/07/22 10:52:43;;;;;;;4.53;2.10;;;;;;;26.37;50.32;100138.94;5092104;28;20055;-63
2023/07/22 10:55:18;;;;;;;3.45;2.10;;;;;;;26.38;50.59;100143.38;5091668;28;20078;-66
2023/07/22 10:57:51;;;;;;;3.60;2.20;;;;;;;26.42;50.68;100140.03;5091705;28;20374;-70
2023/07/22 11:00:20;;;;;;;;;;;;;;;26.44;50.15;100140.72;5091829;28;20047;-67
2023/07/22 11:03:09;;;;;;;3.97;2.13;;;;;;;26.46;50.47;100133.16;5091684;28;19924;-66
2023/07/22 11:05:52;;;;;;;4.15;2.17;;;;;;;26.49;50.03;100149.16;5091713;28;20538;-68
2023/07/22 11:08:37;;;;;;;4.75;1.92;;;;;;;26.52;50.20;100134.22;5091454;28;20052;-68
2023/07/22 11:11:06;;;;;;;3.75;2.00;;;;;;;26.55;50.17;100128.38;5091821;28;20048;-67
2023/07/22 11:13:40;;;;;;;4.53;2.00;;;;;;;26.58;50.15;100125.25;5091839;28;20054;-67
2023/07/22 11:16:11;;;;;;;4.72;2.30;;;;;;;26.60;49.87;100120.41;5091237;28;21131;-67
2023/07/22 11:18:41;;;;;;;3.90;2.35;;;;;;;26.65;49.59;100134.34;5091618;28;20128;-68
2023/07/22 11:21:15;;;;;;;4.78;2.00;;;;;;;26.67;49.87;100115.84;5091538;28;20057;-68
2023/07/22 11:23:44;;;;;;;4.03;2.10;;;;;;;26.72;49.16;100118.81;5091591;28;20097;-70
2023/07/22 11:26:12;;;;;;;4.32;2.03;;;;;;;26.75;49.54;100121.16;5091277;28;20121;-72
2023/07/22 11:28:41;;;;;;;3.58;2.00;;;;;;;26.79;49.40;100127.91;5091254;28;20112;-71
2023/07/22 11:31:09;;;;;;;3.28;1.98;;;;;;;26.81;49.16;100122.22;5091312;28;20101;-71
2023/07/22 11:33:43;;;;;;;3.50;1.67;;;;;;;26.88;48.65;100119.56;5091203;28;20052;-71
2023/07/22 11:36:13;;;;;;;4.30;2.10;;;;;;;26.92;48.80;100104.41;5091273;28;20047;-75
2023/07/22 11:38:41;;;;;;;3.03;1.90;;;;;;;26.93;48.50;100120.66;5090886;28;20125;-76
2023/07/22 11:41:10;;;;;;;3.35;2.00;;;;;;;27.00;48.14;100115.19;5091043;28;20052;-71